createdAt,value
2023-10-09T00:01:18.846Z,16.43
2023-10-09T00:03:54.280Z,16.41
2023-10-09T00:06:31.985Z,16.36
2023-10-09T00:09:18.186Z,16.35
2023-10-09T00:11:49.306Z,16.32
2023-10-09T00:14:20.119Z,16.30
2023-10-09T00:16:50.499Z,16.29
2023-10-09T00:19:31.449Z,16.27
2023-10-09T00:22:05.700Z,16.25
2023-10-09T00:24:46.049Z,16.22
2023-10-09T00:27:16.173Z,16.19
2023-10-09T00:29:46.431Z,16.16
2023-10-09T00:32:28.049Z,16.18
2023-10-09T00:35:14.866Z,16.19
2023-10-09T00:37:46.133Z,16.21
2023-10-09T00:40:24.823Z,16.19
2023-10-09T00:42:57.120Z,16.19
2023-10-09T00:45:33.244Z,16.19
2023-10-09T00:48:04.061Z,16.19
2023-10-09T00:50:49.541Z,16.20
2023-10-09T00:53:20.300Z,16.21
2023-10-09T00:55:56.932Z,16.25
2023-10-09T00:58:27.967Z,16.25
2023-10-09T01:01:00.446Z,16.26
2023-10-09T01:03:34.680Z,16.24
2023-10-09T01:06:09.998Z,16.19
2023-10-09T01:08:41.564Z,16.24
2023-10-09T01:11:31.699Z,16.24
2023-10-09T01:14:21.737Z,16.26
2023-10-09T01:16:55.104Z,16.25
2023-10-09T01:19:28.918Z,16.24
2023-10-09T01:22:05.709Z,16.22
2023-10-09T01:24:40.161Z,16.20
2023-10-09T01:27:17.021Z,16.18
2023-10-09T01:29:49.253Z,16.18
2023-10-09T01:32:20.747Z,16.20
2023-10-09T01:34:51.350Z,16.21
2023-10-09T01:37:24.463Z,16.21
2023-10-09T01:39:59.576Z,16.19
2023-10-09T01:42:31.963Z,16.17
2023-10-09T01:45:17.912Z,16.15
2023-10-09T01:47:57.043Z,16.16
2023-10-09T01:50:28.107Z,16.14
2023-10-09T01:52:57.939Z,16.13
2023-10-09T01:55:35.978Z,16.10
2023-10-09T01:58:08.864Z,16.07
2023-10-09T02:00:44.823Z,16.05
2023-10-09T02:03:14.787Z,16.03
2023-10-09T02:05:46.395Z,16.02
2023-10-09T02:08:17.604Z,16.03
2023-10-09T02:10:50.073Z,16.03
2023-10-09T02:13:20.914Z,16.02
2023-10-09T02:15:54.864Z,15.96
2023-10-09T02:18:24.853Z,15.98
2023-10-09T02:21:05.967Z,15.96
2023-10-09T02:23:42.373Z,15.95
2023-10-09T02:26:34.552Z,15.95
2023-10-09T02:29:10.114Z,15.93
2023-10-09T02:31:44.682Z,15.95
2023-10-09T02:34:17.211Z,15.96
2023-10-09T02:36:58.580Z,15.93
2023-10-09T02:39:28.643Z,15.94
2023-10-09T02:42:08.287Z,15.93
2023-10-09T02:44:47.240Z,15.94
2023-10-09T02:47:30.914Z,15.95
2023-10-09T02:50:08.238Z,15.97
2023-10-09T02:52:44.519Z,15.96
2023-10-09T02:55:29.490Z,15.98
2023-10-09T02:58:09.134Z,15.99
2023-10-09T03:00:39.375Z,15.97
2023-10-09T03:03:11.704Z,15.96
2023-10-09T03:05:43.744Z,15.98
2023-10-09T03:08:13.719Z,15.97
2023-10-09T03:10:43.501Z,15.97
2023-10-09T03:13:15.984Z,15.98
2023-10-09T03:15:46.790Z,15.99
2023-10-09T03:18:16.759Z,15.98
2023-10-09T03:20:48.729Z,15.99
2023-10-09T03:23:19.238Z,16.00
2023-10-09T03:25:50.113Z,16.00
2023-10-09T03:28:19.987Z,16.03
2023-10-09T03:30:54.192Z,15.96
2023-10-09T03:33:24.589Z,16.03
2023-10-09T03:35:54.504Z,16.02
2023-10-09T03:38:24.397Z,16.02
2023-10-09T03:40:54.130Z,15.99
2023-10-09T03:43:24.563Z,16.01
2023-10-09T03:45:54.643Z,15.99
2023-10-09T03:48:27.685Z,15.99
2023-10-09T03:51:23.664Z,15.97
2023-10-09T03:53:54.106Z,15.96
2023-10-09T03:56:24.296Z,15.93
2023-10-09T03:58:54.721Z,15.92
2023-10-09T04:01:31.062Z,15.89
2023-10-09T04:04:04.820Z,15.88
2023-10-09T04:06:35.705Z,15.87
2023-10-09T04:09:22.235Z,15.90
2023-10-09T04:12:11.915Z,15.89
2023-10-09T04:15:03.231Z,15.86
2023-10-09T04:17:36.275Z,15.90
2023-10-09T04:20:20.353Z,15.89
2023-10-09T04:22:52.595Z,15.89
2023-10-09T04:25:43.231Z,15.89
2023-10-09T04:28:15.609Z,15.90
2023-10-09T04:30:48.119Z,15.92
2023-10-09T04:33:30.567Z,15.92
2023-10-09T04:36:22.513Z,15.89
2023-10-09T04:39:07.080Z,15.90
2023-10-09T04:41:43.165Z,15.88
2023-10-09T04:44:18.938Z,15.87
2023-10-09T04:47:14.205Z,15.89
2023-10-09T04:49:51.300Z,15.88
2023-10-09T04:52:31.606Z,15.86
2023-10-09T04:55:07.937Z,15.86
2023-10-09T04:57:44.701Z,15.90
2023-10-09T05:00:26.632Z,15.90
2023-10-09T05:02:58.393Z,15.89
2023-10-09T05:05:45.399Z,15.91
2023-10-09T05:08:21.205Z,15.90
2023-10-09T05:11:01.704Z,15.83
2023-10-09T05:13:40.591Z,15.91
2023-10-09T05:16:16.728Z,15.90
2023-10-09T05:19:08.616Z,15.87
2023-10-09T05:21:43.649Z,15.86
2023-10-09T05:24:15.035Z,15.85
2023-10-09T05:26:50.688Z,15.88
2023-10-09T05:29:33.853Z,15.88
2023-10-09T05:32:14.131Z,15.86
2023-10-09T05:35:00.310Z,15.85
2023-10-09T05:37:35.782Z,15.86
2023-10-09T05:40:17.088Z,15.81
2023-10-09T05:42:58.938Z,15.80
2023-10-09T05:45:48.669Z,15.81
2023-10-09T05:48:20.604Z,15.80
2023-10-09T05:51:13.767Z,15.80
2023-10-09T05:53:46.392Z,15.79
2023-10-09T05:56:35.102Z,15.78
2023-10-09T05:59:07.659Z,15.79
2023-10-09T06:01:56.290Z,15.79
2023-10-09T06:04:56.024Z,15.82
2023-10-09T06:07:42.301Z,15.79
2023-10-09T06:10:19.900Z,15.80
2023-10-09T06:12:58.611Z,15.80
2023-10-09T06:15:51.999Z,15.80
2023-10-09T06:18:33.692Z,15.79
2023-10-09T06:21:06.292Z,15.80
2023-10-09T06:23:54.755Z,15.79
2023-10-09T06:26:27.785Z,15.75
2023-10-09T06:29:16.337Z,15.79
2023-10-09T06:32:17.573Z,15.77
2023-10-09T06:34:57.965Z,15.81
2023-10-09T06:37:27.870Z,15.83
2023-10-09T06:39:59.043Z,15.84
2023-10-09T06:42:32.892Z,15.84
2023-10-09T06:45:10.873Z,15.87
2023-10-09T06:47:43.801Z,15.87
2023-10-09T06:50:23.206Z,15.88
2023-10-09T06:53:12.011Z,15.89
2023-10-09T06:55:53.584Z,15.90
2023-10-09T06:58:24.521Z,15.94
2023-10-09T07:01:13.720Z,15.95
2023-10-09T07:04:01.034Z,15.99
2023-10-09T07:06:36.905Z,15.98
2023-10-09T07:09:07.167Z,16.00
2023-10-09T07:11:41.112Z,16.02
2023-10-09T07:14:31.273Z,16.04
2023-10-09T07:17:02.286Z,16.11
2023-10-09T07:19:36.373Z,16.14
2023-10-09T07:22:17.383Z,16.17
2023-10-09T07:25:22.882Z,16.22
2023-10-09T07:27:55.082Z,16.26
2023-10-09T07:30:31.298Z,16.26
2023-10-09T07:33:12.082Z,16.31
2023-10-09T07:35:43.916Z,16.34
2023-10-09T07:38:20.662Z,16.38
2023-10-09T07:41:21.280Z,16.43
2023-10-09T07:43:52.037Z,16.49
2023-10-09T07:46:53.450Z,16.54
2023-10-09T07:49:26.715Z,16.59
2023-10-09T07:51:59.956Z,16.62
2023-10-09T07:54:37.477Z,16.67
2023-10-09T07:57:10.396Z,16.74
2023-10-09T07:59:42.482Z,16.80
2023-10-09T08:02:14.822Z,16.87
2023-10-09T08:04:51.069Z,16.93
2023-10-09T08:08:04.269Z,17.00
2023-10-09T08:10:15.503Z,17.04
2023-10-09T08:12:51.968Z,17.08
2023-10-09T08:15:23.214Z,17.13
2023-10-09T08:17:55.326Z,17.19
2023-10-09T08:20:26.631Z,17.25
2023-10-09T08:22:57.581Z,17.30
2023-10-09T08:25:33.084Z,17.34
2023-10-09T08:28:23.395Z,17.38
2023-10-09T08:30:56.073Z,17.43
2023-10-09T08:36:06.495Z,17.53
2023-10-09T08:38:43.388Z,17.60
2023-10-09T08:41:18.719Z,17.65
2023-10-09T08:43:52.824Z,17.70
2023-10-09T08:46:28.640Z,17.75
2023-10-09T08:49:03.426Z,17.83
2023-10-09T08:51:36.499Z,17.91
2023-10-09T08:54:13.436Z,17.99
2023-10-09T08:56:52.947Z,18.07
2023-10-09T08:59:25.800Z,18.14
2023-10-09T09:01:59.770Z,18.19
2023-10-09T09:04:42.529Z,18.23
2023-10-09T09:07:30.051Z,18.26
2023-10-09T09:10:20.800Z,18.30
2023-10-09T09:12:54.868Z,18.34
2023-10-09T09:15:28.132Z,18.40
2023-10-09T09:18:18.756Z,18.49
2023-10-09T09:20:51.022Z,18.57
2023-10-09T09:23:25.019Z,18.66
2023-10-09T09:26:11.305Z,18.75
2023-10-09T09:28:56.581Z,18.83
2023-10-09T09:31:29.154Z,18.88
2023-10-09T09:34:03.256Z,18.93
2023-10-09T09:36:36.805Z,18.96
2023-10-09T09:39:20.426Z,18.98
2023-10-09T09:41:53.257Z,19.01
2023-10-09T09:44:27.184Z,19.05
2023-10-09T09:47:00.687Z,19.14
2023-10-09T09:49:34.418Z,19.20
2023-10-09T09:52:11.228Z,19.26
2023-10-09T09:54:41.815Z,19.31
2023-10-09T09:57:14.445Z,19.38
2023-10-09T09:59:51.328Z,19.41
2023-10-09T10:02:30.186Z,19.45
2023-10-09T10:05:04.663Z,19.51
2023-10-09T10:07:44.471Z,19.57
2023-10-09T10:10:40.215Z,19.60
2023-10-09T10:13:16.292Z,19.62
2023-10-09T10:16:21.487Z,19.64
2023-10-09T10:19:08.335Z,19.67
2023-10-09T10:21:42.956Z,19.69
2023-10-09T10:24:58.970Z,19.71
2023-10-09T10:27:34.386Z,19.74
2023-10-09T10:30:34.708Z,19.80
2023-10-09T10:33:17.440Z,19.89
2023-10-09T10:35:53.735Z,19.98
2023-10-09T10:38:34.025Z,20.03
2023-10-09T10:41:17.839Z,20.10
2023-10-09T10:43:54.530Z,20.17
2023-10-09T10:46:25.948Z,20.20
2023-10-09T10:49:15.520Z,20.22
2023-10-09T10:51:54.237Z,20.27
2023-10-09T10:54:34.740Z,20.29
2023-10-09T10:57:20.929Z,20.31
2023-10-09T10:59:51.350Z,20.32
2023-10-09T11:02:29.383Z,20.23
2023-10-09T11:05:16.293Z,20.36
2023-10-09T11:07:46.140Z,20.38
2023-10-09T11:10:28.383Z,20.41
2023-10-09T11:13:10.507Z,20.43
2023-10-09T11:15:48.085Z,20.49
2023-10-09T11:18:21.453Z,20.54
2023-10-09T11:21:05.743Z,20.56
2023-10-09T11:23:40.509Z,20.50
2023-10-09T11:26:27.601Z,20.55
2023-10-09T11:29:16.694Z,20.58
2023-10-09T11:32:01.242Z,20.59
2023-10-09T11:34:32.861Z,20.58
2023-10-09T11:37:05.913Z,20.59
2023-10-09T11:39:38.286Z,20.63
2023-10-09T11:42:09.300Z,20.66
2023-10-09T11:44:56.446Z,20.68
2023-10-09T11:47:37.023Z,20.73
2023-10-09T11:50:18.388Z,20.73
2023-10-09T11:53:10.269Z,20.76
2023-10-09T11:55:43.010Z,20.81
2023-10-09T11:58:13.021Z,20.82
2023-10-09T12:00:47.289Z,20.86
2023-10-09T12:03:18.209Z,20.87
2023-10-09T12:05:48.201Z,20.93
2023-10-09T12:08:18.117Z,20.94
2023-10-09T12:10:49.354Z,20.96
2023-10-09T12:13:19.464Z,20.93
2023-10-09T12:15:49.261Z,20.98
2023-10-09T12:18:21.153Z,21.03
2023-10-09T12:20:52.170Z,21.07
2023-10-09T12:23:24.348Z,21.09
2023-10-09T12:25:57.790Z,21.12
2023-10-09T12:28:28.127Z,21.17
2023-10-09T12:31:04.422Z,21.18
2023-10-09T12:33:34.419Z,21.19
2023-10-09T12:36:06.769Z,21.20
2023-10-09T12:38:36.722Z,21.20
2023-10-09T12:41:26.422Z,21.20
2023-10-09T12:44:01.909Z,21.22
2023-10-09T12:46:39.142Z,21.19
2023-10-09T12:49:09.703Z,21.19
2023-10-09T12:51:41.567Z,21.18
2023-10-09T12:54:11.792Z,21.20
2023-10-09T12:56:41.828Z,21.19
2023-10-09T12:59:16.648Z,21.22
2023-10-09T13:01:46.852Z,21.23
2023-10-09T13:04:17.512Z,21.25
2023-10-09T13:06:47.930Z,21.27
2023-10-09T13:09:37.524Z,21.28
2023-10-09T13:12:09.077Z,21.26
2023-10-09T13:14:42.666Z,21.29
2023-10-09T13:17:12.713Z,21.31
2023-10-09T13:19:45.446Z,21.30
2023-10-09T13:22:15.437Z,21.30
2023-10-09T13:24:49.798Z,21.29
2023-10-09T13:27:22.880Z,21.31
2023-10-09T13:29:53.662Z,21.31
2023-10-09T13:32:23.810Z,21.30
2023-10-09T13:34:56.898Z,21.29
2023-10-09T13:37:28.622Z,21.30
2023-10-09T13:39:58.763Z,21.29
2023-10-09T13:42:28.659Z,21.27
2023-10-09T13:44:58.790Z,21.28
2023-10-09T13:47:33.030Z,21.31
2023-10-09T13:50:03.361Z,21.32
2023-10-09T13:52:33.402Z,21.29
2023-10-09T13:55:17.946Z,21.25
2023-10-09T13:57:48.140Z,21.24
2023-10-09T14:00:33.892Z,21.24
2023-10-09T14:03:13.219Z,21.25
2023-10-09T14:06:06.418Z,21.28
2023-10-09T14:08:36.732Z,21.32
2023-10-09T14:11:06.839Z,21.33
2023-10-09T14:13:36.725Z,21.36
2023-10-09T14:16:09.695Z,21.37
2023-10-09T14:18:41.890Z,21.35
2023-10-09T14:21:17.565Z,21.34
2023-10-09T14:23:49.629Z,21.36
2023-10-09T14:26:19.991Z,21.35
2023-10-09T14:28:51.200Z,21.35
2023-10-09T14:31:28.357Z,21.35
2023-10-09T14:33:58.945Z,21.34
2023-10-09T14:36:36.375Z,21.34
2023-10-09T14:39:07.112Z,21.36
2023-10-09T14:41:37.000Z,21.38
2023-10-09T14:44:07.557Z,21.41
2023-10-09T14:46:37.694Z,21.44
2023-10-09T14:49:07.556Z,21.46
2023-10-09T14:51:37.808Z,21.46
2023-10-09T14:54:09.190Z,21.44
2023-10-09T14:56:39.067Z,21.41
2023-10-09T14:59:09.179Z,21.39
2023-10-09T15:01:39.230Z,21.37
2023-10-09T15:04:16.329Z,21.34
2023-10-09T15:06:49.578Z,21.34
2023-10-09T15:09:29.393Z,21.33
2023-10-09T15:11:59.722Z,21.34
2023-10-09T15:14:29.539Z,21.36
2023-10-09T15:16:59.580Z,21.38
2023-10-09T15:19:32.381Z,21.40
2023-10-09T15:22:09.731Z,21.39
2023-10-09T15:24:42.110Z,21.46
2023-10-09T15:27:14.578Z,21.47
2023-10-09T15:29:46.536Z,21.46
2023-10-09T15:32:23.836Z,21.44
2023-10-09T15:34:58.121Z,21.40
2023-10-09T15:37:28.285Z,21.38
2023-10-09T15:39:58.496Z,21.31
2023-10-09T15:42:30.647Z,21.26
2023-10-09T15:45:01.637Z,21.19
2023-10-09T15:47:31.767Z,21.15
2023-10-09T15:50:01.558Z,21.09
2023-10-09T15:52:31.685Z,21.05
2023-10-09T15:55:02.112Z,21.05
2023-10-09T15:57:33.289Z,21.05
2023-10-09T16:00:14.665Z,21.05
2023-10-09T16:02:44.813Z,21.05
2023-10-09T16:05:14.984Z,21.02
2023-10-09T16:07:47.240Z,21.01
2023-10-09T16:10:19.240Z,21.07
2023-10-09T16:12:49.312Z,21.07
2023-10-09T16:15:20.204Z,21.06
2023-10-09T16:17:59.919Z,21.02
2023-10-09T16:20:32.971Z,20.99
2023-10-09T16:23:05.719Z,20.91
2023-10-09T16:25:35.974Z,20.89
2023-10-09T16:28:06.775Z,20.87
2023-10-09T16:30:37.205Z,20.82
2023-10-09T16:33:07.215Z,20.84
2023-10-09T16:35:38.972Z,20.82
2023-10-09T16:38:13.695Z,20.79
2023-10-09T16:40:53.245Z,20.75
2023-10-09T16:43:28.912Z,20.70
2023-10-09T16:45:58.716Z,20.65
2023-10-09T16:48:29.268Z,20.58
2023-10-09T16:51:06.208Z,20.50
2023-10-09T16:53:41.158Z,20.45
2023-10-09T16:56:11.271Z,20.41
2023-10-09T16:58:43.951Z,20.38
2023-10-09T17:01:17.035Z,20.33
2023-10-09T17:03:48.802Z,20.29
2023-10-09T17:06:20.324Z,20.22
2023-10-09T17:08:52.178Z,20.18
2023-10-09T17:11:25.894Z,20.12
2023-10-09T17:13:58.907Z,20.02
2023-10-09T17:16:30.360Z,19.97
2023-10-09T17:19:04.019Z,19.90
2023-10-09T17:21:37.950Z,19.85
2023-10-09T17:24:12.294Z,19.79
2023-10-09T17:26:46.653Z,19.72
2023-10-09T17:29:18.172Z,19.65
2023-10-09T17:31:48.003Z,19.57
2023-10-09T17:34:19.161Z,19.49
2023-10-09T17:36:50.641Z,19.44
2023-10-09T17:39:27.388Z,19.40
2023-10-09T17:41:57.471Z,19.36
2023-10-09T17:44:29.848Z,19.32
2023-10-09T17:47:01.111Z,19.27
2023-10-09T17:49:32.369Z,19.22
2023-10-09T17:52:02.380Z,19.16
2023-10-09T17:54:35.824Z,19.12
2023-10-09T17:57:05.741Z,19.08
2023-10-09T17:59:41.957Z,19.04
2023-10-09T18:02:12.234Z,19.01
2023-10-09T18:04:42.943Z,18.96
2023-10-09T18:07:14.892Z,18.89
2023-10-09T18:09:45.447Z,18.83
2023-10-09T18:12:15.965Z,18.78
2023-10-09T18:14:47.322Z,18.72
2023-10-09T18:17:20.937Z,18.70
2023-10-09T18:19:53.090Z,18.66
2023-10-09T18:22:25.320Z,18.62
2023-10-09T18:24:55.139Z,18.58
2023-10-09T18:27:28.857Z,18.54
2023-10-09T18:30:01.015Z,18.49
2023-10-09T18:32:32.115Z,18.46
2023-10-09T18:35:04.491Z,18.44
2023-10-09T18:37:34.273Z,18.42
2023-10-09T18:40:07.214Z,18.39
2023-10-09T18:42:38.695Z,18.37
2023-10-09T18:45:16.605Z,18.34
2023-10-09T18:47:47.092Z,18.29
2023-10-09T18:50:18.311Z,18.25
2023-10-09T18:52:48.309Z,18.23
2023-10-09T18:55:19.470Z,18.20
2023-10-09T18:57:49.553Z,18.15
2023-10-09T19:00:24.905Z,18.10
2023-10-09T19:02:54.839Z,18.04
2023-10-09T19:05:25.059Z,17.99
2023-10-09T19:07:55.111Z,17.92
2023-10-09T19:10:26.820Z,17.89
2023-10-09T19:12:56.587Z,17.85
2023-10-09T19:15:26.434Z,17.80
2023-10-09T19:17:56.701Z,17.76
2023-10-09T19:20:26.681Z,17.72
2023-10-09T19:22:56.495Z,17.68
2023-10-09T19:25:34.094Z,17.64
2023-10-09T19:28:08.609Z,17.60
2023-10-09T19:30:38.686Z,17.57
2023-10-09T19:33:12.748Z,17.58
2023-10-09T19:35:45.270Z,17.52
2023-10-09T19:38:15.308Z,17.54
2023-10-09T19:40:53.693Z,17.50
2023-10-09T19:43:25.946Z,17.45
2023-10-09T19:46:04.408Z,17.42
2023-10-09T19:48:38.763Z,17.37
2023-10-09T19:51:08.763Z,17.33
2023-10-09T19:53:38.505Z,17.30
2023-10-09T19:56:12.597Z,17.28
2023-10-09T19:58:41.386Z,17.22
2023-10-09T20:01:14.491Z,17.18
2023-10-09T20:03:46.962Z,17.13
2023-10-09T20:06:17.110Z,17.07
2023-10-09T20:08:49.035Z,17.05
2023-10-09T20:11:19.161Z,17.00
2023-10-09T20:13:54.136Z,16.98
2023-10-09T20:16:28.021Z,16.96
2023-10-09T20:18:57.953Z,16.92
2023-10-09T20:21:27.981Z,16.90
2023-10-09T20:24:02.462Z,16.86
2023-10-09T20:26:34.415Z,16.84
2023-10-09T20:29:05.194Z,16.83
2023-10-09T20:31:38.540Z,16.78
2023-10-09T20:34:10.414Z,16.74
2023-10-09T20:36:46.904Z,16.74
2023-10-09T20:39:22.141Z,16.72
2023-10-09T20:41:51.962Z,16.70
2023-10-09T20:44:21.765Z,16.68
2023-10-09T20:46:55.922Z,16.68
2023-10-09T20:49:27.922Z,16.66
2023-10-09T20:51:58.186Z,16.66
2023-10-09T20:54:28.420Z,16.64
2023-10-09T20:56:58.473Z,16.58
2023-10-09T20:59:28.386Z,16.57
2023-10-09T21:01:58.164Z,16.54
2023-10-09T21:04:28.163Z,16.53
2023-10-09T21:07:00.145Z,16.51
2023-10-09T21:09:30.092Z,16.50
2023-10-09T21:12:00.515Z,16.47
2023-10-09T21:14:30.316Z,16.44
2023-10-09T21:17:02.258Z,16.41
2023-10-09T21:19:34.208Z,16.38
2023-10-09T21:22:04.504Z,16.34
2023-10-09T21:24:34.940Z,16.32
2023-10-09T21:27:07.540Z,16.28
2023-10-09T21:29:37.497Z,16.27
2023-10-09T21:32:08.358Z,16.23
2023-10-09T21:34:38.511Z,16.20
2023-10-09T21:37:10.752Z,16.15
2023-10-09T21:39:40.566Z,16.13
2023-10-09T21:42:10.404Z,16.09
2023-10-09T21:44:40.828Z,16.07
2023-10-09T21:47:12.985Z,16.02
2023-10-09T21:49:45.262Z,16.01
2023-10-09T21:52:15.129Z,15.97
2023-10-09T21:54:44.883Z,15.94
2023-10-09T21:57:15.875Z,15.94
2023-10-09T21:59:47.691Z,15.93
2023-10-09T22:02:19.305Z,15.93
2023-10-09T22:04:51.958Z,15.93
2023-10-09T22:07:32.227Z,15.90
2023-10-09T22:10:06.819Z,15.88
2023-10-09T22:12:40.448Z,15.87
2023-10-09T22:15:15.619Z,15.84
2023-10-09T22:17:46.376Z,15.87
2023-10-09T22:20:21.045Z,15.85
2023-10-09T22:22:57.888Z,15.84
2023-10-09T22:25:31.200Z,15.83
2023-10-09T22:28:03.384Z,15.80
2023-10-09T22:30:34.976Z,15.76
2023-10-09T22:33:06.427Z,15.73
2023-10-09T22:35:46.069Z,15.73
2023-10-09T22:38:21.820Z,15.72
2023-10-09T22:40:52.823Z,15.72
2023-10-09T22:43:25.419Z,15.70
2023-10-09T22:45:57.863Z,15.65
2023-10-09T22:48:28.518Z,15.63
2023-10-09T22:51:10.908Z,15.63
2023-10-09T22:53:41.234Z,15.63
2023-10-09T22:56:17.427Z,15.61
2023-10-09T22:58:53.579Z,15.59
2023-10-09T23:01:28.030Z,15.55
2023-10-09T23:04:16.334Z,15.53
2023-10-09T23:06:46.479Z,15.48
2023-10-09T23:09:32.405Z,15.48
2023-10-09T23:12:08.619Z,15.42
2023-10-09T23:14:38.800Z,15.41
2023-10-09T23:17:08.897Z,15.38
2023-10-09T23:19:43.431Z,15.34
2023-10-09T23:22:12.341Z,15.33
2023-10-09T23:25:09.682Z,15.26
2023-10-09T23:27:42.783Z,15.21
2023-10-09T23:30:35.003Z,15.21
2023-10-09T23:33:22.261Z,15.18
2023-10-09T23:35:58.710Z,15.16
2023-10-09T23:38:57.651Z,15.11
2023-10-09T23:41:28.105Z,15.08
2023-10-09T23:43:57.838Z,15.06
2023-10-09T23:46:31.672Z,15.04
2023-10-09T23:49:01.474Z,15.02
2023-10-09T23:51:32.048Z,15.01
2023-10-09T23:54:11.441Z,15.03
2023-10-09T23:56:56.765Z,14.98
2023-10-09T23:59:39.626Z,14.97
